Airport View

Enter ICAO identifier to see the current METAR for that AWOS.

KFNL for example

K79S 011105Z AUTO 22007KT 10SM 11/04 A2993

1 Sep 2014 11:09

Frequency: 122.8

Phone: 406-622-5976

Other Area AWOS: KGFA - KGTF - KHVR - KLWT

TAF AMD KGFA 0105/0209 26009KT 9999 SCT080 BKN150 QNH2989INS BECMG 0119/0120 24015G25KT 9999 SCT100 QNH2990INS BECMG 0206/0207 25012KT 9999 FEW120 QNH2988INS TX21/0123Z TN10/0112Z AMD 010550